sensor_id;sensor_type;location;lat;lon;timestamp;pressure;altitude;pressure_sealevel;temperature;humidity
7966;BME280;4028;43.272;26.932;2022-10-31T00:01:36;99390.78;;;16.22;nan
7966;BME280;4028;43.272;26.932;2022-10-31T00:04:02;99388.13;;;16.22;nan
7966;BME280;4028;43.272;26.932;2022-10-31T00:06:28;99381.31;;;16.19;nan
7966;BME280;4028;43.272;26.932;2022-10-31T00:08:59;99378.44;;;16.21;nan
7966;BME280;4028;43.272;26.932;2022-10-31T00:11:25;99386.81;;;16.18;nan
7966;BME280;4028;43.272;26.932;2022-10-31T00:13:51;99373.81;;;16.15;nan
7966;BME280;4028;43.272;26.932;2022-10-31T00:16:19;99386.66;;;16.19;nan
7966;BME280;4028;43.272;26.932;2022-10-31T00:18:52;99386.97;;;16.16;nan
7966;BME280;4028;43.272;26.932;2022-10-31T00:21:19;99394.66;;;16.19;nan
7966;BME280;4028;43.272;26.932;2022-10-31T00:23:44;99387.97;;;16.23;nan
7966;BME280;4028;43.272;26.932;2022-10-31T00:26:10;99394.13;;;16.24;nan
7966;BME280;4028;43.272;26.932;2022-10-31T00:28:36;99376.78;;;16.20;nan
7966;BME280;4028;43.272;26.932;2022-10-31T00:31:03;99393.97;;;16.17;nan
7966;BME280;4028;43.272;26.932;2022-10-31T00:33:29;99389.19;;;16.13;nan
7966;BME280;4028;43.272;26.932;2022-10-31T00:35:55;99397.66;;;16.16;nan
7966;BME280;4028;43.272;26.932;2022-10-31T00:38:20;99397.66;;;16.16;nan
7966;BME280;4028;43.272;26.932;2022-10-31T00:40:46;99393.84;;;16.10;nan
7966;BME280;4028;43.272;26.932;2022-10-31T00:43:12;99395.69;;;16.10;nan
7966;BME280;4028;43.272;26.932;2022-10-31T00:45:37;99395.03;;;16.08;nan
7966;BME280;4028;43.272;26.932;2022-10-31T00:48:03;99392.53;;;16.06;nan
7966;BME280;4028;43.272;26.932;2022-10-31T00:50:28;99395.38;;;16.05;nan
7966;BME280;4028;43.272;26.932;2022-10-31T00:52:54;99394.22;;;16.07;nan
7966;BME280;4028;43.272;26.932;2022-10-31T00:55:19;99384.00;;;16.11;nan
7966;BME280;4028;43.272;26.932;2022-10-31T00:57:48;99383.53;;;16.07;nan
7966;BME280;4028;43.272;26.932;2022-10-31T01:00:14;99386.53;;;16.04;nan
7966;BME280;4028;43.272;26.932;2022-10-31T01:02:40;99385.03;;;16.02;nan
7966;BME280;4028;43.272;26.932;2022-10-31T01:05:05;99387.06;;;16.00;nan
7966;BME280;4028;43.272;26.932;2022-10-31T01:07:31;99387.88;;;16.00;nan
7966;BME280;4028;43.272;26.932;2022-10-31T01:09:57;99395.25;;;15.98;nan
7966;BME280;4028;43.272;26.932;2022-10-31T01:12:22;99384.91;;;15.95;nan
7966;BME280;4028;43.272;26.932;2022-10-31T01:14:48;99388.72;;;16.01;nan
7966;BME280;4028;43.272;26.932;2022-10-31T01:17:14;99388.75;;;15.93;nan
7966;BME280;4028;43.272;26.932;2022-10-31T01:19:39;99393.59;;;15.89;nan
7966;BME280;4028;43.272;26.932;2022-10-31T01:22:05;99397.22;;;15.96;nan
7966;BME280;4028;43.272;26.932;2022-10-31T01:24:31;99391.56;;;15.91;nan
7966;BME280;4028;43.272;26.932;2022-10-31T01:26:56;99379.75;;;15.94;nan
7966;BME280;4028;43.272;26.932;2022-10-31T01:29:22;99380.38;;;15.96;nan
7966;BME280;4028;43.272;26.932;2022-10-31T01:31:47;99382.41;;;15.94;nan
7966;BME280;4028;43.272;26.932;2022-10-31T01:34:15;99383.72;;;15.98;nan
7966;BME280;4028;43.272;26.932;2022-10-31T01:36:41;99381.00;;;16.06;nan
7966;BME280;4028;43.272;26.932;2022-10-31T01:39:11;99387.53;;;16.03;nan
7966;BME280;4028;43.272;26.932;2022-10-31T01:41:41;99386.03;;;16.09;nan
7966;BME280;4028;43.272;26.932;2022-10-31T01:46:45;99390.66;;;16.15;nan
7966;BME280;4028;43.272;26.932;2022-10-31T01:49:56;99389.13;;;16.21;nan
7966;BME280;4028;43.272;26.932;2022-10-31T01:54:55;99394.53;;;16.04;nan
7966;BME280;4028;43.272;26.932;2022-10-31T01:57:23;99387.38;;;16.05;nan
7966;BME280;4028;43.272;26.932;2022-10-31T01:59:53;99391.22;;;16.02;nan
7966;BME280;4028;43.272;26.932;2022-10-31T02:02:24;99390.22;;;16.03;nan
7966;BME280;4028;43.272;26.932;2022-10-31T02:04:51;99390.22;;;15.95;nan
7966;BME280;4028;43.272;26.932;2022-10-31T02:07:24;99397.91;;;15.90;nan
7966;BME280;4028;43.272;26.932;2022-10-31T02:09:51;99385.78;;;15.88;nan
7966;BME280;4028;43.272;26.932;2022-10-31T02:12:18;99391.13;;;15.79;nan
7966;BME280;4028;43.272;26.932;2022-10-31T02:14:46;99392.94;;;15.87;nan
7966;BME280;4028;43.272;26.932;2022-10-31T02:17:12;99389.28;;;15.80;nan
7966;BME280;4028;43.272;26.932;2022-10-31T02:20:12;99397.66;;;15.77;nan
7966;BME280;4028;43.272;26.932;2022-10-31T02:30:31;99396.97;;;15.83;nan
7966;BME280;4028;43.272;26.932;2022-10-31T02:33:29;99388.78;;;15.76;nan
7966;BME280;4028;43.272;26.932;2022-10-31T02:36:19;99392.63;;;15.74;nan
7966;BME280;4028;43.272;26.932;2022-10-31T02:38:56;99394.16;;;15.68;nan
7966;BME280;4028;43.272;26.932;2022-10-31T02:41:47;99389.00;;;15.67;nan
7966;BME280;4028;43.272;26.932;2022-10-31T02:44:53;99399.16;;;15.55;nan
7966;BME280;4028;43.272;26.932;2022-10-31T02:47:27;99417.00;;;15.46;nan
7966;BME280;4028;43.272;26.932;2022-10-31T02:52:28;99423.00;;;15.40;nan
7966;BME280;4028;43.272;26.932;2022-10-31T02:54:54;99407.03;;;15.32;nan
7966;BME280;4028;43.272;26.932;2022-10-31T02:57:27;99411.00;;;15.20;nan
7966;BME280;4028;43.272;26.932;2022-10-31T03:00:00;99418.69;;;15.23;nan
7966;BME280;4028;43.272;26.932;2022-10-31T03:07:57;99416.19;;;15.21;nan
7966;BME280;4028;43.272;26.932;2022-10-31T03:15:57;99428.69;;;15.21;nan
7966;BME280;4028;43.272;26.932;2022-10-31T03:18:37;99428.03;;;15.27;nan
7966;BME280;4028;43.272;26.932;2022-10-31T03:21:09;99432.00;;;15.23;nan
7966;BME280;4028;43.272;26.932;2022-10-31T03:23:39;99434.19;;;15.27;nan
7966;BME280;4028;43.272;26.932;2022-10-31T03:26:07;99430.00;;;15.25;nan
7966;BME280;4028;43.272;26.932;2022-10-31T03:28:39;99432.31;;;15.20;nan
7966;BME280;4028;43.272;26.932;2022-10-31T03:31:09;99435.34;;;15.17;nan
7966;BME280;4028;43.272;26.932;2022-10-31T03:33:37;99442.34;;;15.18;nan
7966;BME280;4028;43.272;26.932;2022-10-31T03:36:05;99444.16;;;15.17;nan
7966;BME280;4028;43.272;26.932;2022-10-31T03:38:34;99439.81;;;15.24;nan
7966;BME280;4028;43.272;26.932;2022-10-31T03:41:03;99441.84;;;15.22;nan
7966;BME280;4028;43.272;26.932;2022-10-31T03:43:33;99447.00;;;15.32;nan
7966;BME280;4028;43.272;26.932;2022-10-31T03:46:03;99450.34;;;15.34;nan
7966;BME280;4028;43.272;26.932;2022-10-31T03:48:28;99457.34;;;15.43;nan
7966;BME280;4028;43.272;26.932;2022-10-31T03:53:37;99458.50;;;15.65;nan
7966;BME280;4028;43.272;26.932;2022-10-31T03:59:02;99472.16;;;15.70;nan
7966;BME280;4028;43.272;26.932;2022-10-31T04:01:32;99477.19;;;15.73;nan
7966;BME280;4028;43.272;26.932;2022-10-31T04:04:01;99472.16;;;15.78;nan
7966;BME280;4028;43.272;26.932;2022-10-31T04:06:27;99476.31;;;15.81;nan
7966;BME280;4028;43.272;26.932;2022-10-31T04:08:58;99472.81;;;15.89;nan
7966;BME280;4028;43.272;26.932;2022-10-31T04:11:30;99476.31;;;15.89;nan
7966;BME280;4028;43.272;26.932;2022-10-31T04:13:57;99473.66;;;15.89;nan
7966;BME280;4028;43.272;26.932;2022-10-31T04:16:24;99482.81;;;15.86;nan
7966;BME280;4028;43.272;26.932;2022-10-31T04:18:51;99477.78;;;15.92;nan
7966;BME280;4028;43.272;26.932;2022-10-31T04:21:17;99481.31;;;15.92;nan
7966;BME280;4028;43.272;26.932;2022-10-31T04:23:42;99477.47;;;15.95;nan
7966;BME280;4028;43.272;26.932;2022-10-31T04:26:11;99483.47;;;15.97;nan
7966;BME280;4028;43.272;26.932;2022-10-31T04:28:37;99483.63;;;16.03;nan
7966;BME280;4028;43.272;26.932;2022-10-31T04:31:02;99487.97;;;16.04;nan
7966;BME280;4028;43.272;26.932;2022-10-31T04:33:28;99487.97;;;15.96;nan
7966;BME280;4028;43.272;26.932;2022-10-31T04:35:53;99491.31;;;15.90;nan
7966;BME280;4028;43.272;26.932;2022-10-31T04:38:19;99478.84;;;15.74;nan
7966;BME280;4028;43.272;26.932;2022-10-31T04:40:45;99494.16;;;15.80;nan
7966;BME280;4028;43.272;26.932;2022-10-31T04:43:11;99486.88;;;15.66;nan
7966;BME280;4028;43.272;26.932;2022-10-31T04:45:37;99472.03;;;15.64;nan
7966;BME280;4028;43.272;26.932;2022-10-31T04:48:03;99504.84;;;15.80;nan
7966;BME280;4028;43.272;26.932;2022-10-31T04:50:28;99511.84;;;15.81;nan
7966;BME280;4028;43.272;26.932;2022-10-31T04:52:54;99508.66;;;15.86;nan
7966;BME280;4028;43.272;26.932;2022-10-31T04:55:24;99509.69;;;15.85;nan
7966;BME280;4028;43.272;26.932;2022-10-31T04:57:50;99509.50;;;15.86;nan
7966;BME280;4028;43.272;26.932;2022-10-31T05:00:19;99517.69;;;15.93;nan
7966;BME280;4028;43.272;26.932;2022-10-31T05:02:51;99519.53;;;15.93;nan
7966;BME280;4028;43.272;26.932;2022-10-31T05:05:18;99516.03;;;15.92;nan
7966;BME280;4028;43.272;26.932;2022-10-31T05:07:46;99514.31;;;16.07;nan
7966;BME280;4028;43.272;26.932;2022-10-31T05:10:15;99528.81;;;16.13;nan
7966;BME280;4028;43.272;26.932;2022-10-31T05:12:49;99524.13;;;16.15;nan
7966;BME280;4028;43.272;26.932;2022-10-31T05:15:16;99536.00;;;16.13;nan
7966;BME280;4028;43.272;26.932;2022-10-31T05:17:41;99529.28;;;16.25;nan
7966;BME280;4028;43.272;26.932;2022-10-31T05:20:07;99535.31;;;16.19;nan
7966;BME280;4028;43.272;26.932;2022-10-31T05:22:33;99545.50;;;16.23;nan
7966;BME280;4028;43.272;26.932;2022-10-31T05:24:59;99559.00;;;16.22;nan
7966;BME280;4028;43.272;26.932;2022-10-31T05:27:24;99559.00;;;16.22;nan
7966;BME280;4028;43.272;26.932;2022-10-31T05:29:50;99558.00;;;16.23;nan
7966;BME280;4028;43.272;26.932;2022-10-31T05:32:15;99551.16;;;16.28;nan
7966;BME280;4028;43.272;26.932;2022-10-31T05:34:41;99547.16;;;16.24;nan
7966;BME280;4028;43.272;26.932;2022-10-31T05:37:06;99555.81;;;16.26;nan
7966;BME280;4028;43.272;26.932;2022-10-31T05:39:32;99561.16;;;16.34;nan
7966;BME280;4028;43.272;26.932;2022-10-31T05:41:57;99563.31;;;16.39;nan
7966;BME280;4028;43.272;26.932;2022-10-31T05:44:23;99565.63;;;16.42;nan
7966;BME280;4028;43.272;26.932;2022-10-31T05:46:48;99570.94;;;16.50;nan
7966;BME280;4028;43.272;26.932;2022-10-31T05:49:14;99577.25;;;16.57;nan
7966;BME280;4028;43.272;26.932;2022-10-31T05:51:39;99578.28;;;16.56;nan
7966;BME280;4028;43.272;26.932;2022-10-31T05:54:05;99574.91;;;16.62;nan
7966;BME280;4028;43.272;26.932;2022-10-31T05:56:30;99574.59;;;16.74;nan
7966;BME280;4028;43.272;26.932;2022-10-31T05:58:56;99578.91;;;16.75;nan
7966;BME280;4028;43.272;26.932;2022-10-31T06:01:21;99550.53;;;16.57;nan
7966;BME280;4028;43.272;26.932;2022-10-31T06:03:47;99581.41;;;16.76;nan
7966;BME280;4028;43.272;26.932;2022-10-31T06:06:12;99583.91;;;16.78;nan
7966;BME280;4028;43.272;26.932;2022-10-31T06:08:37;99586.44;;;16.71;nan
7966;BME280;4028;43.272;26.932;2022-10-31T06:11:03;99584.91;;;16.77;nan
7966;BME280;4028;43.272;26.932;2022-10-31T06:13:29;99593.75;;;16.77;nan
7966;BME280;4028;43.272;26.932;2022-10-31T06:15:54;99591.59;;;16.73;nan
7966;BME280;4028;43.272;26.932;2022-10-31T06:18:19;99596.97;;;16.64;nan
7966;BME280;4028;43.272;26.932;2022-10-31T06:20:45;99603.78;;;16.67;nan
7966;BME280;4028;43.272;26.932;2022-10-31T06:23:10;99603.66;;;16.52;nan
7966;BME280;4028;43.272;26.932;2022-10-31T06:25:36;99599.13;;;16.69;nan
7966;BME280;4028;43.272;26.932;2022-10-31T06:28:01;99597.66;;;16.58;nan
7966;BME280;4028;43.272;26.932;2022-10-31T06:30:27;99598.94;;;16.62;nan
7966;BME280;4028;43.272;26.932;2022-10-31T06:32:52;99606.28;;;16.85;nan
7966;BME280;4028;43.272;26.932;2022-10-31T06:35:18;99613.34;;;17.09;nan
7966;BME280;4028;43.272;26.932;2022-10-31T06:37:51;99603.53;;;17.55;nan
7966;BME280;4028;43.272;26.932;2022-10-31T06:40:16;99609.50;;;18.11;nan
7966;BME280;4028;43.272;26.932;2022-10-31T06:42:42;99605.00;;;18.94;nan
7966;BME280;4028;43.272;26.932;2022-10-31T06:45:07;99606.78;;;20.02;nan
7966;BME280;4028;43.272;26.932;2022-10-31T06:47:33;99610.47;;;20.79;nan
7966;BME280;4028;43.272;26.932;2022-10-31T06:49:58;99616.22;;;21.71;nan
7966;BME280;4028;43.272;26.932;2022-10-31T06:52:24;99609.25;;;22.17;nan
7966;BME280;4028;43.272;26.932;2022-10-31T06:54:49;99603.19;;;22.21;nan
7966;BME280;4028;43.272;26.932;2022-10-31T06:57:15;99607.94;;;22.59;nan
7966;BME280;4028;43.272;26.932;2022-10-31T06:59:40;99606.59;;;23.01;nan
7966;BME280;4028;43.272;26.932;2022-10-31T07:02:09;99602.25;;;23.45;nan
7966;BME280;4028;43.272;26.932;2022-10-31T07:04:35;99605.09;;;23.89;nan
7966;BME280;4028;43.272;26.932;2022-10-31T07:07:00;99602.53;;;24.25;nan
7966;BME280;4028;43.272;26.932;2022-10-31T07:09:26;99594.81;;;24.54;nan
7966;BME280;4028;43.272;26.932;2022-10-31T07:11:52;99601.72;;;24.86;nan
7966;BME280;4028;43.272;26.932;2022-10-31T07:14:18;99601.53;;;25.06;nan
7966;BME280;4028;43.272;26.932;2022-10-31T07:16:48;99601.97;;;25.22;nan
7966;BME280;4028;43.272;26.932;2022-10-31T07:19:13;99607.91;;;25.60;nan
7966;BME280;4028;43.272;26.932;2022-10-31T07:21:39;99602.38;;;26.09;nan
7966;BME280;4028;43.272;26.932;2022-10-31T07:24:04;99608.84;;;25.66;nan
7966;BME280;4028;43.272;26.932;2022-10-31T07:26:30;99605.84;;;24.52;nan
7966;BME280;4028;43.272;26.932;2022-10-31T07:28:55;99604.13;;;24.58;nan
7966;BME280;4028;43.272;26.932;2022-10-31T07:31:21;99605.38;;;25.47;nan
7966;BME280;4028;43.272;26.932;2022-10-31T07:33:46;99599.97;;;26.42;nan
7966;BME280;4028;43.272;26.932;2022-10-31T07:36:12;99604.34;;;27.19;nan
7966;BME280;4028;43.272;26.932;2022-10-31T07:38:37;99607.94;;;27.65;nan
7966;BME280;4028;43.272;26.932;2022-10-31T07:41:03;99602.16;;;28.23;nan
7966;BME280;4028;43.272;26.932;2022-10-31T07:43:28;99612.31;;;28.84;nan
7966;BME280;4028;43.272;26.932;2022-10-31T07:45:54;99607.06;;;28.77;nan
7966;BME280;4028;43.272;26.932;2022-10-31T07:48:20;99613.28;;;29.16;nan
7966;BME280;4028;43.272;26.932;2022-10-31T07:50:46;99608.63;;;29.61;nan
7966;BME280;4028;43.272;26.932;2022-10-31T07:53:13;99614.97;;;29.98;nan
7966;BME280;4028;43.272;26.932;2022-10-31T07:55:39;99609.19;;;30.22;nan
7966;BME280;4028;43.272;26.932;2022-10-31T07:58:10;99613.34;;;30.67;nan
7966;BME280;4028;43.272;26.932;2022-10-31T08:00:37;99621.97;;;30.96;nan
7966;BME280;4028;43.272;26.932;2022-10-31T08:03:08;99606.69;;;31.05;nan
7966;BME280;4028;43.272;26.932;2022-10-31T08:05:34;99624.34;;;31.35;nan
7966;BME280;4028;43.272;26.932;2022-10-31T08:08:00;99631.72;;;31.34;nan
7966;BME280;4028;43.272;26.932;2022-10-31T08:10:26;99621.09;;;31.53;nan
7966;BME280;4028;43.272;26.932;2022-10-31T08:13:00;99629.06;;;30.92;nan
7966;BME280;4028;43.272;26.932;2022-10-31T08:15:26;99620.31;;;29.56;nan
7966;BME280;4028;43.272;26.932;2022-10-31T08:17:52;99631.63;;;29.70;nan
7966;BME280;4028;43.272;26.932;2022-10-31T08:20:18;99623.19;;;30.03;nan
7966;BME280;4028;43.272;26.932;2022-10-31T08:22:53;99628.03;;;29.91;nan
7966;BME280;4028;43.272;26.932;2022-10-31T08:25:18;99627.00;;;29.70;nan
7966;BME280;4028;43.272;26.932;2022-10-31T08:27:48;99626.53;;;29.30;nan
7966;BME280;4028;43.272;26.932;2022-10-31T08:30:14;99616.41;;;29.03;nan
7966;BME280;4028;43.272;26.932;2022-10-31T08:32:39;99619.56;;;28.95;nan
7966;BME280;4028;43.272;26.932;2022-10-31T08:35:05;99624.03;;;28.84;nan
7966;BME280;4028;43.272;26.932;2022-10-31T08:37:30;99624.44;;;28.76;nan
7966;BME280;4028;43.272;26.932;2022-10-31T08:39:56;99622.44;;;28.66;nan
7966;BME280;4028;43.272;26.932;2022-10-31T08:42:21;99627.34;;;28.69;nan
7966;BME280;4028;43.272;26.932;2022-10-31T08:44:47;99626.78;;;28.67;nan
7966;BME280;4028;43.272;26.932;2022-10-31T08:47:12;99630.00;;;28.64;nan
7966;BME280;4028;43.272;26.932;2022-10-31T08:49:37;99630.72;;;28.76;nan
7966;BME280;4028;43.272;26.932;2022-10-31T08:52:03;99621.47;;;28.05;nan
7966;BME280;4028;43.272;26.932;2022-10-31T08:54:28;99619.47;;;28.34;nan
7966;BME280;4028;43.272;26.932;2022-10-31T08:56:54;99628.03;;;28.60;nan
7966;BME280;4028;43.272;26.932;2022-10-31T08:59:20;99630.19;;;28.96;nan
7966;BME280;4028;43.272;26.932;2022-10-31T09:01:46;99629.19;;;29.24;nan
7966;BME280;4028;43.272;26.932;2022-10-31T09:04:11;99628.97;;;29.53;nan
7966;BME280;4028;43.272;26.932;2022-10-31T09:06:37;99626.94;;;29.65;nan
7966;BME280;4028;43.272;26.932;2022-10-31T09:09:02;99642.72;;;29.63;nan
7966;BME280;4028;43.272;26.932;2022-10-31T09:11:30;99640.84;;;29.64;nan
7966;BME280;4028;43.272;26.932;2022-10-31T09:13:55;99644.91;;;29.39;nan
7966;BME280;4028;43.272;26.932;2022-10-31T09:16:22;99646.13;;;29.48;nan
7966;BME280;4028;43.272;26.932;2022-10-31T09:18:47;99637.97;;;29.75;nan
7966;BME280;4028;43.272;26.932;2022-10-31T09:21:13;99631.03;;;29.19;nan
7966;BME280;4028;43.272;26.932;2022-10-31T09:23:38;99636.72;;;28.95;nan
7966;BME280;4028;43.272;26.932;2022-10-31T09:26:04;99640.78;;;28.37;nan
7966;BME280;4028;43.272;26.932;2022-10-31T09:28:29;99619.94;;;28.65;nan
7966;BME280;4028;43.272;26.932;2022-10-31T09:30:56;99632.94;;;29.18;nan
7966;BME280;4028;43.272;26.932;2022-10-31T09:33:22;99612.69;;;29.36;nan
7966;BME280;4028;43.272;26.932;2022-10-31T09:35:47;99632.03;;;29.57;nan
7966;BME280;4028;43.272;26.932;2022-10-31T09:38:18;99631.16;;;29.78;nan
7966;BME280;4028;43.272;26.932;2022-10-31T09:46:18;99632.75;;;30.01;nan
7966;BME280;4028;43.272;26.932;2022-10-31T09:51:27;99616.66;;;30.04;100.00
7966;BME280;4028;43.272;26.932;2022-10-31T09:56:29;99616.66;;;30.04;nan
7966;BME280;4028;43.272;26.932;2022-10-31T09:58:58;99615.19;;;31.09;nan
7966;BME280;4028;43.272;26.932;2022-10-31T10:01:49;99617.31;;;30.96;nan
7966;BME280;4028;43.272;26.932;2022-10-31T10:04:37;99612.97;;;30.53;nan
7966;BME280;4028;43.272;26.932;2022-10-31T10:10:08;99610.19;;;30.11;nan
7966;BME280;4028;43.272;26.932;2022-10-31T10:26:56;99605.75;;;27.21;nan
7966;BME280;4028;43.272;26.932;2022-10-31T10:29:38;99599.34;;;27.28;nan
7966;BME280;4028;43.272;26.932;2022-10-31T10:32:13;99595.69;;;27.79;nan
7966;BME280;4028;43.272;26.932;2022-10-31T10:34:51;99592.50;;;28.49;nan
7966;BME280;4028;43.272;26.932;2022-10-31T10:37:21;99594.41;;;28.71;nan
7966;BME280;4028;43.272;26.932;2022-10-31T10:39:51;99589.59;;;29.17;nan
7966;BME280;4028;43.272;26.932;2022-10-31T10:42:18;99593.09;;;29.61;nan
7966;BME280;4028;43.272;26.932;2022-10-31T10:45:17;99586.22;;;28.32;nan
7966;BME280;4028;43.272;26.932;2022-10-31T10:48:09;99585.31;;;27.47;nan
7966;BME280;4028;43.272;26.932;2022-10-31T10:50:49;99585.75;;;27.28;nan
7966;BME280;4028;43.272;26.932;2022-10-31T10:58:42;99584.53;;;25.89;nan
7966;BME280;4028;43.272;26.932;2022-10-31T11:01:12;99574.38;;;25.43;nan
7966;BME280;4028;43.272;26.932;2022-10-31T11:03:38;99583.78;;;25.10;nan
7966;BME280;4028;43.272;26.932;2022-10-31T11:06:04;99586.31;;;25.05;nan
7966;BME280;4028;43.272;26.932;2022-10-31T11:08:36;99568.34;;;24.93;nan
7966;BME280;4028;43.272;26.932;2022-10-31T11:13:33;99563.81;;;25.05;nan
7966;BME280;4028;43.272;26.932;2022-10-31T11:16:04;99564.66;;;25.96;nan
7966;BME280;4028;43.272;26.932;2022-10-31T11:18:36;99568.22;;;26.43;nan
7966;BME280;4028;43.272;26.932;2022-10-31T11:21:03;99566.03;;;26.80;nan
7966;BME280;4028;43.272;26.932;2022-10-31T11:23:30;99562.41;;;26.51;nan
7966;BME280;4028;43.272;26.932;2022-10-31T11:26:02;99568.09;;;25.73;nan
7966;BME280;4028;43.272;26.932;2022-10-31T11:28:29;99575.13;;;25.20;nan
7966;BME280;4028;43.272;26.932;2022-10-31T11:30:57;99568.94;;;24.76;nan
7966;BME280;4028;43.272;26.932;2022-10-31T11:33:28;99563.78;;;24.93;nan
7966;BME280;4028;43.272;26.932;2022-10-31T11:35:54;99560.66;;;25.08;nan
7966;BME280;4028;43.272;26.932;2022-10-31T11:38:24;99556.19;;;25.32;nan
7966;BME280;4028;43.272;26.932;2022-10-31T11:41:17;99530.25;;;25.54;nan
7966;BME280;4028;43.272;26.932;2022-10-31T11:43:52;99546.69;;;25.41;nan
7966;BME280;4028;43.272;26.932;2022-10-31T11:46:28;99556.44;;;25.30;nan
7966;BME280;4028;43.272;26.932;2022-10-31T11:48:55;99555.41;;;25.13;nan
7966;BME280;4028;43.272;26.932;2022-10-31T11:51:27;99558.59;;;25.10;nan
7966;BME280;4028;43.272;26.932;2022-10-31T11:53:57;99557.75;;;24.91;nan
7966;BME280;4028;43.272;26.932;2022-10-31T11:56:23;99545.72;;;24.87;nan
7966;BME280;4028;43.272;26.932;2022-10-31T11:58:56;99554.94;;;24.98;nan
7966;BME280;4028;43.272;26.932;2022-10-31T12:01:30;99552.81;;;24.88;nan
7966;BME280;4028;43.272;26.932;2022-10-31T12:04:10;99561.59;;;24.65;nan
7966;BME280;4028;43.272;26.932;2022-10-31T12:06:38;99558.16;;;24.33;nan
7966;BME280;4028;43.272;26.932;2022-10-31T12:11:59;99552.13;;;24.31;nan
7966;BME280;4028;43.272;26.932;2022-10-31T12:14:34;99553.09;;;24.18;nan
7966;BME280;4028;43.272;26.932;2022-10-31T12:17:10;99546.41;;;24.21;nan
7966;BME280;4028;43.272;26.932;2022-10-31T12:53:07;99564.34;;;24.15;nan
7966;BME280;4028;43.272;26.932;2022-10-31T12:55:58;99554.31;;;24.22;nan
7966;BME280;4028;43.272;26.932;2022-10-31T12:58:53;99557.91;;;24.16;nan
7966;BME280;4028;43.272;26.932;2022-10-31T13:04:00;99554.22;;;23.85;nan
7966;BME280;4028;43.272;26.932;2022-10-31T13:06:40;99568.88;;;23.71;nan
7966;BME280;4028;43.272;26.932;2022-10-31T13:09:08;99567.41;;;23.75;nan
7966;BME280;4028;43.272;26.932;2022-10-31T13:11:40;99548.38;;;23.57;nan
7966;BME280;4028;43.272;26.932;2022-10-31T13:14:28;99565.38;;;23.64;nan
7966;BME280;4028;43.272;26.932;2022-10-31T13:16:55;99561.66;;;23.58;nan
7966;BME280;4028;43.272;26.932;2022-10-31T13:19:31;99569.03;;;23.45;nan
7966;BME280;4028;43.272;26.932;2022-10-31T13:22:23;99565.91;;;23.41;nan
7966;BME280;4028;43.272;26.932;2022-10-31T13:27:22;99565.78;;;23.29;nan
7966;BME280;4028;43.272;26.932;2022-10-31T13:32:20;99564.56;;;23.25;nan
7966;BME280;4028;43.272;26.932;2022-10-31T13:34:50;99553.41;;;23.15;nan
7966;BME280;4028;43.272;26.932;2022-10-31T13:37:52;99570.13;;;23.30;nan
7966;BME280;4028;43.272;26.932;2022-10-31T13:45:27;99568.41;;;23.04;nan
7966;BME280;4028;43.272;26.932;2022-10-31T13:50:54;99569.63;;;23.08;nan
7966;BME280;4028;43.272;26.932;2022-10-31T13:53:22;99574.16;;;23.15;nan
7966;BME280;4028;43.272;26.932;2022-10-31T13:55:50;99570.09;;;22.99;nan
7966;BME280;4028;43.272;26.932;2022-10-31T13:58:28;99576.72;;;22.96;nan
7966;BME280;4028;43.272;26.932;2022-10-31T14:03:37;99571.34;;;22.96;nan
7966;BME280;4028;43.272;26.932;2022-10-31T14:06:05;99577.13;;;23.00;nan
7966;BME280;4028;43.272;26.932;2022-10-31T14:08:34;99576.94;;;22.95;nan
7966;BME280;4028;43.272;26.932;2022-10-31T14:11:01;99574.88;;;22.77;nan
7966;BME280;4028;43.272;26.932;2022-10-31T14:13:36;99572.19;;;22.83;nan
7966;BME280;4028;43.272;26.932;2022-10-31T14:16:18;99583.41;;;22.67;nan
7966;BME280;4028;43.272;26.932;2022-10-31T14:18:50;99583.63;;;22.72;nan
7966;BME280;4028;43.272;26.932;2022-10-31T14:23:48;99585.16;;;22.48;nan
7966;BME280;4028;43.272;26.932;2022-10-31T14:28:51;99589.91;;;22.40;nan
7966;BME280;4028;43.272;26.932;2022-10-31T14:34:17;99586.38;;;22.46;nan
7966;BME280;4028;43.272;26.932;2022-10-31T14:37:04;99580.00;;;22.27;nan
7966;BME280;4028;43.272;26.932;2022-10-31T14:51:07;99584.94;;;22.03;nan
7966;BME280;4028;43.272;26.932;2022-10-31T14:53:26;99583.91;;;21.98;nan
7966;BME280;4028;43.272;26.932;2022-10-31T14:55:54;99587.63;;;21.90;nan
7966;BME280;4028;43.272;26.932;2022-10-31T14:58:25;99591.97;;;21.85;nan
7966;BME280;4028;43.272;26.932;2022-10-31T15:00:55;99592.59;;;21.80;nan
7966;BME280;4028;43.272;26.932;2022-10-31T15:03:32;99598.19;;;21.65;nan
7966;BME280;4028;43.272;26.932;2022-10-31T15:06:05;99599.81;;;21.60;nan
7966;BME280;4028;43.272;26.932;2022-10-31T15:08:40;99599.19;;;21.58;nan
7966;BME280;4028;43.272;26.932;2022-10-31T15:11:35;99598.53;;;21.49;nan
7966;BME280;4028;43.272;26.932;2022-10-31T15:14:00;99609.13;;;21.50;nan
7966;BME280;4028;43.272;26.932;2022-10-31T15:16:35;99601.22;;;21.36;nan
7966;BME280;4028;43.272;26.932;2022-10-31T15:19:08;99605.19;;;21.46;nan
7966;BME280;4028;43.272;26.932;2022-10-31T15:21:36;99616.13;;;21.38;nan
7966;BME280;4028;43.272;26.932;2022-10-31T15:24:05;99606.16;;;21.32;nan
7966;BME280;4028;43.272;26.932;2022-10-31T15:26:34;99612.94;;;21.21;nan
7966;BME280;4028;43.272;26.932;2022-10-31T15:29:03;99616.22;;;21.17;nan
7966;BME280;4028;43.272;26.932;2022-10-31T15:31:29;99614.72;;;21.08;nan
7966;BME280;4028;43.272;26.932;2022-10-31T15:34:01;99621.75;;;21.09;nan
7966;BME280;4028;43.272;26.932;2022-10-31T15:36:28;99623.22;;;21.05;nan
7966;BME280;4028;43.272;26.932;2022-10-31T15:38:56;99614.63;;;20.88;nan
7966;BME280;4028;43.272;26.932;2022-10-31T15:44:07;99624.91;;;20.77;nan
7966;BME280;4028;43.272;26.932;2022-10-31T15:46:37;99597.25;;;20.49;nan
7966;BME280;4028;43.272;26.932;2022-10-31T15:49:03;99630.81;;;20.60;nan
7966;BME280;4028;43.272;26.932;2022-10-31T15:51:32;99632.97;;;20.43;nan
7966;BME280;4028;43.272;26.932;2022-10-31T15:53:58;99640.19;;;20.42;nan
7966;BME280;4028;43.272;26.932;2022-10-31T15:56:30;99640.78;;;20.38;nan
7966;BME280;4028;43.272;26.932;2022-10-31T15:58:58;99638.22;;;20.30;nan
7966;BME280;4028;43.272;26.932;2022-10-31T16:01:30;99635.63;;;20.15;nan
7966;BME280;4028;43.272;26.932;2022-10-31T16:04:14;99646.63;;;19.98;nan
7966;BME280;4028;43.272;26.932;2022-10-31T16:06:44;99642.88;;;19.93;nan
7966;BME280;4028;43.272;26.932;2022-10-31T16:09:22;99647.78;;;19.89;nan